Time;durP1;ratioP1;P1;durP2;ratioP2;P2;SDS_P1;SDS_P2;PMS_P1;PMS_P2;Temp;Humidity;BMP_temperature;BMP_pressure;BME280_temperature;BME280_humidity;BME280_pressure;Samples;Min_cycle;Max_cycle;Signal;HPM_P1;HPM_P2
2022/10/11 20:01:16;;;;;;;5.67;4.23;;;;;;;;;;5088673;28;20478;-56
2022/10/11 20:03:43;;;;;;;9.07;4.77;;;16.70;99.90;;;;;;5067780;28;20193;-59
2022/10/11 20:06:10;;;;;;;7.60;4.73;;;16.40;99.90;;;;;;5086917;28;20170;-57
2022/10/11 20:08:36;;;;;;;7.70;5.50;;;15.90;99.90;;;;;;5078555;28;20187;-59
2022/10/11 20:11:11;;;;;;;8.33;5.40;;;;;;;;;;5080460;28;20174;-58
2022/10/11 20:13:37;;;;;;;9.27;5.20;;;;;;;;;;5067217;28;20270;-58
2022/10/11 20:16:09;;;;;;;10.90;4.83;;;15.00;99.90;;;;;;5061553;28;20216;-57
2022/10/11 20:18:36;;;;;;;8.27;5.67;;;15.60;99.90;;;;;;5074614;28;20192;-58
2022/10/11 20:21:05;;;;;;;8.10;6.17;;;15.40;99.90;;;;;;5068505;28;20202;-54
2022/10/11 20:23:32;;;;;;;7.90;5.50;;;15.30;99.90;;;;;;5070341;28;20195;-59
2022/10/11 20:26:08;;;;;;;13.53;5.47;;;;;;;;;;5084154;28;20191;-55
2022/10/11 20:28:35;;;;;;;8.80;5.40;;;15.40;99.90;;;;;;5070156;28;20205;-60
2022/10/11 20:31:02;;;;;;;8.10;5.03;;;15.20;99.90;;;;;;5076164;28;20170;-55
2022/10/11 20:33:29;;;;;;;7.33;5.10;;;15.00;99.90;;;;;;5071803;28;20195;-55
2022/10/11 20:35:58;;;;;;;11.40;5.23;;;;;;;;;;5066491;28;20182;-56
2022/10/11 20:38:24;;;;;;;7.97;5.10;;;;;;;;;;5062779;28;20258;-60
2022/10/11 20:40:50;;;;;;;8.80;5.30;;;;;;;;;;5054468;28;20420;-56
2022/10/11 20:43:16;;;;;;;8.83;5.20;;;;;;;;;;5060010;28;20324;-52
2022/10/11 20:45:42;;;;;;;6.80;4.73;;;15.10;99.90;;;;;;5063988;28;20182;-60
2022/10/11 20:48:08;;;;;;;9.50;5.30;;;;;;;;;;5068868;28;20178;-56
2022/10/11 20:50:34;;;;;;;6.80;5.40;;;;;;;;;;5065941;28;20166;-57
2022/10/11 20:53:00;;;;;;;8.83;4.97;;;15.00;99.90;;;;;;5067430;28;20201;-55
2022/10/11 20:55:26;;;;;;;9.37;4.40;;;;;;;;;;5067099;28;20178;-60
2022/10/11 20:57:51;;;;;;;5.70;4.67;;;14.50;99.90;;;;;;5066883;28;20178;-56
2022/10/11 21:00:17;;;;;;;8.20;4.73;;;;;;;;;;5062276;28;20650;-56
2022/10/11 21:02:43;;;;;;;7.87;4.43;;;;;;;;;;5060406;28;20565;-55
2022/10/11 21:05:10;;;;;;;8.67;5.07;;;;;;;;;;5056306;28;20179;-57
2022/10/11 21:07:36;;;;;;;5.93;4.77;;;;;;;;;;5057695;28;20178;-56
2022/10/11 21:10:02;;;;;;;7.87;5.03;;;;;;;;;;5049591;28;20186;-58
2022/10/11 21:12:28;;;;;;;6.33;4.60;;;;;;;;;;5051625;28;20514;-58
2022/10/11 21:14:53;;;;;;;8.10;4.60;;;14.20;99.90;;;;;;5053241;28;20233;-56
2022/10/11 21:17:19;;;;;;;8.90;5.13;;;;;;;;;;5053228;28;20662;-58
2022/10/11 21:19:45;;;;;;;8.33;4.70;;;;;;;;;;5053226;28;20233;-58
2022/10/11 21:22:11;;;;;;;8.70;5.20;;;;;;;;;;5053799;28;20226;-59
2022/10/11 21:24:37;;;;;;;7.73;5.23;;;14.50;99.90;;;;;;5053426;28;20171;-57
2022/10/11 21:27:03;;;;;;;10.20;5.40;;;15.10;99.90;;;;;;5052675;28;20179;-54
2022/10/11 21:29:29;;;;;;;8.97;5.77;;;15.10;99.90;;;;;;5053416;28;20184;-56
2022/10/11 21:34:12;;;;;;;9.63;7.33;;;;;;;;;;5068428;28;20551;-55
2022/10/11 21:36:38;;;;;;;9.57;7.03;;;15.10;99.90;;;;;;5068254;28;20178;-59
2022/10/11 21:39:04;;;;;;;7.70;6.37;;;14.90;99.90;;;;;;5068422;28;20704;-51
2022/10/11 21:41:29;;;;;;;8.60;6.37;;;14.70;99.90;;;;;;5068428;28;20166;-56
2022/10/11 21:43:56;;;;;;;8.77;6.50;;;14.70;99.90;;;;;;5050166;28;20256;-51
2022/10/11 21:46:25;;;;;;;9.47;6.10;;;14.80;99.90;;;;;;5048730;28;20580;-53
2022/10/11 21:48:50;;;;;;;8.67;5.97;;;14.70;99.90;;;;;;5047876;28;20174;-52
2022/10/11 21:51:21;;;;;;;9.73;5.97;;;14.80;99.90;;;;;;5048345;28;20249;-54
2022/10/11 21:53:47;;;;;;;9.80;6.70;;;14.80;99.90;;;;;;5034759;28;20242;-60
2022/10/11 21:56:12;;;;;;;9.37;5.83;;;14.80;99.90;;;;;;5045301;28;20175;-55
2022/10/11 21:58:38;;;;;;;9.40;6.10;;;14.80;99.90;;;;;;5047453;28;20529;-57
2022/10/11 22:01:04;;;;;;;11.03;6.37;;;14.80;99.90;;;;;;5047041;28;20240;-55
2022/10/11 22:03:29;;;;;;;9.10;5.67;;;14.90;99.90;;;;;;5047128;28;20198;-58
2022/10/11 22:05:55;;;;;;;9.03;6.47;;;14.80;99.90;;;;;;5047286;28;20183;-56
2022/10/11 22:08:21;;;;;;;11.43;7.43;;;14.80;99.90;;;;;;5047466;28;20187;-59
2022/10/11 22:10:55;;;;;;;8.50;6.80;;;14.70;99.90;;;;;;5047173;28;20181;-57
2022/10/11 22:13:20;;;;;;;9.03;6.13;;;14.70;99.90;;;;;;5047868;28;20278;-55
2022/10/11 22:15:47;;;;;;;6.90;5.83;;;14.70;99.90;;;;;;5047168;28;20696;-59
2022/10/11 22:18:12;;;;;;;6.80;5.17;;;14.60;99.90;;;;;;5045465;28;20175;-56
2022/10/11 22:20:38;;;;;;;9.10;5.23;;;14.70;99.90;;;;;;5045424;28;20232;-54
2022/10/11 22:23:03;;;;;;;9.70;4.90;;;14.60;99.90;;;;;;5047972;28;20635;-55
2022/10/11 22:25:29;;;;;;;9.23;5.27;;;14.60;99.90;;;;;;5047612;28;20210;-58
2022/10/11 22:27:55;;;;;;;8.07;5.60;;;14.70;99.90;;;;;;5042785;28;20186;-57
2022/10/11 22:30:21;;;;;;;7.63;5.40;;;14.70;99.90;;;;;;5027670;28;20171;-58
2022/10/11 22:32:46;;;;;;;7.47;6.03;;;14.70;99.90;;;;;;5027443;28;20203;-56
2022/10/11 22:35:12;;;;;;;10.10;6.70;;;14.70;99.90;;;;;;5027250;28;20517;-57
2022/10/11 22:37:37;;;;;;;11.83;7.30;;;14.70;99.90;;;;;;5027684;28;20167;-57
2022/10/11 22:40:03;;;;;;;9.23;7.60;;;14.70;99.90;;;;;;5035478;28;20235;-56
2022/10/11 22:42:29;;;;;;;8.80;7.53;;;14.70;99.90;;;;;;5045466;28;20198;-56
2022/10/11 22:44:55;;;;;;;12.17;7.60;;;14.70;99.90;;;;;;5037027;28;20233;-58
2022/10/11 22:47:20;;;;;;;8.93;7.77;;;14.80;99.90;;;;;;5028758;28;20494;-56
2022/10/11 22:49:46;;;;;;;9.40;7.80;;;14.80;99.90;;;;;;5033572;28;20179;-55
2022/10/11 22:52:11;;;;;;;9.60;7.77;;;14.80;99.90;;;;;;5033893;28;20199;-58
2022/10/11 22:54:37;;;;;;;9.33;8.00;;;14.80;99.90;;;;;;5033705;28;20298;-58
2022/10/11 22:57:03;;;;;;;9.43;7.70;;;14.70;99.90;;;;;;5031476;28;20526;-58
2022/10/11 22:59:28;;;;;;;12.53;8.33;;;14.80;99.90;;;;;;5033808;28;20199;-57
2022/10/11 23:01:54;;;;;;;9.50;7.70;;;14.80;99.90;;;;;;5033119;28;20172;-57
2022/10/11 23:04:19;;;;;;;11.23;7.83;;;14.80;99.90;;;;;;5033363;28;20158;-57
2022/10/11 23:06:45;;;;;;;10.63;7.87;;;14.70;99.90;;;;;;5033725;28;20194;-58
2022/10/11 23:09:11;;;;;;;9.63;8.50;;;14.80;99.90;;;;;;5033837;28;20175;-57
2022/10/11 23:11:37;;;;;;;11.27;8.23;;;14.70;99.90;;;;;;5033603;28;20518;-58
2022/10/11 23:14:02;;;;;;;9.43;7.87;;;14.70;99.90;;;;;;5031662;28;20269;-56
2022/10/11 23:16:28;;;;;;;12.33;9.17;;;14.70;99.90;;;;;;5033547;28;20211;-58
2022/10/11 23:18:54;;;;;;;10.80;8.63;;;14.60;99.90;;;;;;5033055;28;20222;-57
2022/10/11 23:21:20;;;;;;;10.13;7.43;;;14.70;99.90;;;;;;5033543;28;20166;-57
2022/10/11 23:23:45;;;;;;;8.73;7.47;;;14.60;99.90;;;;;;5032812;28;20227;-58
2022/10/11 23:26:15;;;;;;;9.73;7.90;;;14.60;99.90;;;;;;5033439;28;20179;-56
2022/10/11 23:28:42;;;;;;;10.23;8.40;;;14.60;99.90;;;;;;5032990;28;20175;-58
2022/10/11 23:31:10;;;;;;;11.80;9.20;;;14.60;99.90;;;;;;5033330;28;20648;-58
2022/10/11 23:33:35;;;;;;;12.10;8.77;;;14.60;99.90;;;;;;5032668;28;20214;-57
2022/10/11 23:36:01;;;;;;;10.10;8.00;;;14.60;99.90;;;;;;5032578;28;20190;-56
2022/10/11 23:38:27;;;;;;;12.13;8.50;;;14.60;99.90;;;;;;5033131;28;20520;-57
2022/10/11 23:40:52;;;;;;;8.17;6.47;;;14.50;99.90;;;;;;5033097;28;20173;-57
2022/10/11 23:43:18;;;;;;;8.47;7.57;;;14.50;99.90;;;;;;5032686;28;20190;-57
2022/10/11 23:45:44;;;;;;;9.83;8.30;;;14.40;99.90;;;;;;5032534;28;20946;-57
2022/10/11 23:48:09;;;;;;;11.53;8.10;;;14.40;99.90;;;;;;5024462;28;20549;-58
2022/10/11 23:50:35;;;;;;;10.87;7.80;;;14.30;99.90;;;;;;5032510;28;20240;-57
2022/10/11 23:53:00;;;;;;;9.20;7.43;;;14.40;99.90;;;;;;5032173;28;20241;-58
2022/10/11 23:55:26;;;;;;;9.30;7.40;;;14.30;99.90;;;;;;5031841;28;20167;-54
2022/10/11 23:57:52;;;;;;;10.60;7.40;;;14.10;99.90;;;;;;5032371;28;20199;-57
